createdAt,value
2023-04-02T00:00:18.635Z,99294.31
2023-04-02T00:01:51.054Z,99290.91
2023-04-02T00:03:23.068Z,99283.84
2023-04-02T00:05:31.793Z,99287.88
2023-04-02T00:07:30.385Z,99295.41
2023-04-02T00:09:15.311Z,99289.94
2023-04-02T00:10:51.034Z,99304.31
2023-04-02T00:12:22.932Z,99302.72
2023-04-02T00:13:54.766Z,99305.78
2023-04-02T00:15:26.678Z,99305.63
2023-04-02T00:17:01.469Z,99315.41
2023-04-02T00:18:37.104Z,99314.22
2023-04-02T00:20:14.430Z,99330.53
2023-04-02T00:21:47.489Z,99325.28
2023-04-02T00:23:19.988Z,99330.75
2023-04-02T00:24:54.333Z,99329.19
2023-04-02T00:26:37.968Z,99340.13
2023-04-02T00:28:14.628Z,99334.41
2023-04-02T00:29:51.552Z,99340.75
2023-04-02T00:31:24.730Z,99341.84
2023-04-02T00:32:56.821Z,99337.47
2023-04-02T00:34:38.612Z,99342.09
2023-04-02T00:36:10.444Z,99347.31
2023-04-02T00:37:42.435Z,99352.06
2023-04-02T00:39:20.620Z,99348.78
2023-04-02T00:40:56.318Z,99353.41
2023-04-02T00:42:31.366Z,99360.72
2023-04-02T00:44:03.923Z,99362.66
2023-04-02T00:45:38.424Z,99365.47
2023-04-02T00:47:37.637Z,99365.09
2023-04-02T00:49:19.237Z,99369.47
2023-04-02T00:50:53.559Z,99374.72
2023-04-02T00:52:29.894Z,99376.75
2023-04-02T00:54:06.274Z,99382.38
2023-04-02T00:55:40.660Z,99384.28
2023-04-02T00:57:20.487Z,99383.78
2023-04-02T00:58:55.042Z,99386.47
2023-04-02T01:00:33.599Z,99386.84
2023-04-02T01:02:14.988Z,99399.47
2023-04-02T01:04:01.667Z,99411.16
2023-04-02T01:05:35.206Z,99402.38
2023-04-02T01:07:11.461Z,99408.84
2023-04-02T01:09:09.452Z,99410.16
2023-04-02T01:10:48.145Z,99412.69
2023-04-02T01:12:30.068Z,99416.34
2023-04-02T01:14:29.804Z,99419.13
2023-04-02T01:16:31.163Z,99428.50
2023-04-02T01:18:21.860Z,99432.75
2023-04-02T01:20:31.116Z,99436.75
2023-04-02T01:22:09.468Z,99436.84
2023-04-02T01:23:59.091Z,99440.50
2023-04-02T01:25:41.607Z,99437.97
2023-04-02T01:27:21.671Z,99440.88
2023-04-02T01:29:08.867Z,99449.22
2023-04-02T01:30:42.428Z,99456.53
2023-04-02T01:32:19.936Z,99464.78
2023-04-02T01:33:51.932Z,99469.38
2023-04-02T01:35:26.711Z,99466.91
2023-04-02T01:37:23.262Z,99474.53
2023-04-02T01:39:07.612Z,99467.59
2023-04-02T01:40:46.438Z,99473.91
2023-04-02T01:42:29.007Z,99480.34
2023-04-02T01:44:08.131Z,99486.75
2023-04-02T01:45:40.913Z,99492.22
2023-04-02T01:47:15.699Z,99500.47
2023-04-02T01:48:47.586Z,99499.72
2023-04-02T01:50:19.319Z,99501.66
2023-04-02T01:51:56.842Z,99502.75
2023-04-02T01:53:31.471Z,99512.56
2023-04-02T01:55:03.909Z,99507.31
2023-04-02T01:56:36.245Z,99513.66
2023-04-02T01:58:11.640Z,99515.56
2023-04-02T01:59:46.113Z,99512.03
2023-04-02T02:01:22.265Z,99515.78
2023-04-02T02:02:56.951Z,99521.13
2023-04-02T02:04:29.912Z,99523.03
2023-04-02T02:06:03.304Z,99523.91
2023-04-02T02:07:35.881Z,99531.06
2023-04-02T02:09:12.644Z,99534.59
2023-04-02T02:10:45.248Z,99536.50
2023-04-02T02:12:17.295Z,99542.91
2023-04-02T02:13:55.399Z,99541.34
2023-04-02T02:15:28.280Z,99543.88
2023-04-02T02:17:02.981Z,99548.50
2023-04-02T02:18:34.862Z,99547.84
2023-04-02T02:20:12.634Z,99550.41
2023-04-02T02:21:51.109Z,99555.13
2023-04-02T02:23:23.510Z,99551.69
2023-04-02T02:25:01.977Z,99559.84
2023-04-02T02:26:36.169Z,99565.41
2023-04-02T02:28:14.562Z,99559.19
2023-04-02T02:29:51.879Z,99565.50
2023-04-02T02:31:30.296Z,99574.59
2023-04-02T02:33:21.959Z,99578.41
2023-04-02T02:35:04.114Z,99578.41
2023-04-02T02:36:45.836Z,99576.94
2023-04-02T02:38:35.443Z,99588.78
2023-04-02T02:40:27.051Z,99584.94
2023-04-02T02:42:14.105Z,99597.75
2023-04-02T02:43:56.837Z,99593.38
2023-04-02T02:45:35.894Z,99593.59
2023-04-02T02:47:16.102Z,99606.94
2023-04-02T02:48:49.485Z,99606.41
2023-04-02T02:50:27.727Z,99612.91
2023-04-02T02:52:13.055Z,99606.94
2023-04-02T02:54:00.557Z,99617.72
2023-04-02T02:55:37.172Z,99620.59
2023-04-02T02:57:25.539Z,99617.16
2023-04-02T02:58:58.266Z,99621.00
2023-04-02T03:00:37.533Z,99628.06
2023-04-02T03:02:11.221Z,99623.13
2023-04-02T03:03:45.073Z,99625.78
2023-04-02T03:05:22.326Z,99630.50
2023-04-02T03:06:58.416Z,99634.13
2023-04-02T03:08:42.032Z,99641.50
2023-04-02T03:10:34.608Z,99647.22
2023-04-02T03:12:43.225Z,99645.53
2023-04-02T03:14:39.222Z,99652.78
2023-04-02T03:16:18.610Z,99653.72
2023-04-02T03:18:14.757Z,99665.34
2023-04-02T03:19:58.309Z,99666.31
2023-04-02T03:21:48.940Z,99665.47
2023-04-02T03:23:35.508Z,99668.22
2023-04-02T03:25:30.123Z,99674.53
2023-04-02T03:27:13.926Z,99679.78
2023-04-02T03:29:19.282Z,99679.19
2023-04-02T03:30:58.786Z,99685.84
2023-04-02T03:32:35.859Z,99685.84
2023-04-02T03:34:24.073Z,99700.34
2023-04-02T03:36:03.202Z,99695.09
2023-04-02T03:37:51.749Z,99701.59
2023-04-02T03:39:34.383Z,99708.88
2023-04-02T03:41:19.951Z,99702.88
2023-04-02T03:43:00.863Z,99712.66
2023-04-02T03:44:42.525Z,99715.53
2023-04-02T03:46:33.100Z,99724.50
2023-04-02T03:48:13.645Z,99723.53
2023-04-02T03:49:55.867Z,99725.53
2023-04-02T03:51:43.972Z,99728.31
2023-04-02T03:53:16.009Z,99734.69
2023-04-02T03:54:53.148Z,99739.19
2023-04-02T03:56:40.111Z,99741.19
2023-04-02T03:58:25.854Z,99745.47
2023-04-02T04:00:20.596Z,99750.25
2023-04-02T04:02:03.865Z,99755.56
2023-04-02T04:03:49.892Z,99761.88
2023-04-02T04:05:28.816Z,99754.91
2023-04-02T04:07:02.391Z,99771.94
2023-04-02T04:08:50.613Z,99772.91
2023-04-02T04:10:26.358Z,99769.59
2023-04-02T04:12:16.940Z,99781.47
2023-04-02T04:13:59.925Z,99778.81
2023-04-02T04:15:40.745Z,99792.34
2023-04-02T04:17:38.688Z,99797.78
2023-04-02T04:19:23.334Z,99810.41
2023-04-02T04:20:58.938Z,99803.38
2023-04-02T04:22:38.029Z,99816.69
2023-04-02T04:24:25.710Z,99823.97
2023-04-02T04:26:53.690Z,99823.38
2023-04-02T04:28:42.749Z,99821.56
2023-04-02T04:30:35.157Z,99831.44
2023-04-02T04:32:35.002Z,99834.22
2023-04-02T04:34:20.506Z,99836.88
2023-04-02T04:35:57.875Z,99845.06
2023-04-02T04:37:36.474Z,99844.22
2023-04-02T04:39:21.907Z,99848.88
2023-04-02T04:41:13.742Z,99856.84
2023-04-02T04:42:50.949Z,99855.22
2023-04-02T04:44:25.895Z,99856.19
2023-04-02T04:46:11.241Z,99865.22
2023-04-02T04:47:53.400Z,99864.53
2023-04-02T04:49:38.631Z,99869.94
2023-04-02T04:51:22.283Z,99869.38
2023-04-02T04:52:54.431Z,99879.84
2023-04-02T04:54:28.604Z,99877.56
2023-04-02T04:56:18.217Z,99882.06
2023-04-02T04:58:00.046Z,99883.22
2023-04-02T04:59:36.115Z,99886.81
2023-04-02T05:01:24.582Z,99892.41
2023-04-02T05:03:21.300Z,99894.31
2023-04-02T05:04:53.419Z,99899.72
2023-04-02T05:06:56.567Z,99894.38
2023-04-02T05:08:32.650Z,99904.25
2023-04-02T05:10:17.487Z,99902.56
2023-04-02T05:12:05.660Z,99917.00
2023-04-02T05:13:49.879Z,99918.13
2023-04-02T05:15:30.330Z,99919.91
2023-04-02T05:17:17.149Z,99927.16
2023-04-02T05:19:11.225Z,99927.22
2023-04-02T05:21:11.328Z,99938.81
2023-04-02T05:22:51.498Z,99939.78
2023-04-02T05:24:40.877Z,99944.31
2023-04-02T05:26:19.380Z,99954.13
2023-04-02T05:28:04.139Z,99947.94
2023-04-02T05:29:41.792Z,99964.94
2023-04-02T05:31:22.782Z,99962.38
2023-04-02T05:33:05.319Z,99962.22
2023-04-02T05:34:40.008Z,99971.13
2023-04-02T05:36:18.837Z,99974.75
2023-04-02T05:37:54.985Z,99978.34
2023-04-02T05:39:27.840Z,99989.00
2023-04-02T05:41:27.875Z,99987.59
2023-04-02T05:43:04.537Z,99998.03
2023-04-02T05:44:42.691Z,99994.56
2023-04-02T05:46:27.511Z,100001.69
2023-04-02T05:48:06.283Z,100002.66
2023-04-02T05:50:10.493Z,100001.97
2023-04-02T05:51:52.730Z,100015.13
2023-04-02T05:53:47.479Z,100009.16
2023-04-02T05:55:19.973Z,100019.03
2023-04-02T05:56:58.121Z,100019.13
2023-04-02T05:58:37.417Z,100031.75
2023-04-02T06:00:47.818Z,100033.38
2023-04-02T06:02:38.033Z,100029.94
2023-04-02T06:04:34.236Z,100037.47
2023-04-02T06:06:15.724Z,100045.53
2023-04-02T06:07:54.579Z,100038.56
2023-04-02T06:09:39.035Z,100050.41
2023-04-02T06:11:20.681Z,100048.78
2023-04-02T06:13:03.499Z,100054.16
2023-04-02T06:14:38.869Z,100053.16
2023-04-02T06:16:15.848Z,100057.78
2023-04-02T06:17:51.918Z,100068.41
2023-04-02T06:19:31.291Z,100061.59
2023-04-02T06:21:05.656Z,100063.31
2023-04-02T06:22:42.054Z,100069.59
2023-04-02T06:24:18.451Z,100083.84
2023-04-02T06:26:01.895Z,100079.44
2023-04-02T06:27:35.555Z,100088.22
2023-04-02T06:29:34.298Z,100082.09
2023-04-02T06:31:28.174Z,100086.34
2023-04-02T06:33:00.989Z,100090.72
2023-04-02T06:34:37.422Z,100091.56
2023-04-02T06:36:12.922Z,100092.44
2023-04-02T06:37:52.066Z,100096.03
2023-04-02T06:39:28.001Z,100103.88
2023-04-02T06:41:05.080Z,100101.38
2023-04-02T06:42:45.825Z,100102.16
2023-04-02T06:44:38.210Z,100105.75
2023-04-02T06:46:34.665Z,100107.53
2023-04-02T06:48:17.810Z,100110.16
2023-04-02T06:50:17.692Z,100114.50
2023-04-02T06:51:53.436Z,100122.50
2023-04-02T06:53:53.610Z,100126.09
2023-04-02T06:55:47.773Z,100122.59
2023-04-02T06:57:23.056Z,100131.28
2023-04-02T06:58:56.247Z,100133.94
2023-04-02T07:00:46.691Z,100139.41
2023-04-02T07:02:36.118Z,100139.31
2023-04-02T07:04:10.581Z,100148.84
2023-04-02T07:05:46.293Z,100154.19
2023-04-02T07:07:18.318Z,100148.78
2023-04-02T07:08:51.951Z,100160.22
2023-04-02T07:10:25.189Z,100155.69
2023-04-02T07:11:57.080Z,100161.78
2023-04-02T07:13:29.051Z,100164.22
2023-04-02T07:15:01.051Z,100166.00
2023-04-02T07:16:34.770Z,100169.47
2023-04-02T07:18:06.692Z,100169.47
2023-04-02T07:19:38.886Z,100173.84
2023-04-02T07:21:10.853Z,100170.22
2023-04-02T07:22:43.125Z,100176.34
2023-04-02T07:24:15.140Z,100182.53
2023-04-02T07:25:49.109Z,100177.19
2023-04-02T07:27:20.899Z,100175.34
2023-04-02T07:28:53.872Z,100186.84
2023-04-02T07:30:25.941Z,100192.16
2023-04-02T07:31:57.792Z,100195.59
2023-04-02T07:33:31.331Z,100192.94
2023-04-02T07:35:03.439Z,100196.47
2023-04-02T07:36:35.651Z,100202.66
2023-04-02T07:38:07.502Z,100204.38
2023-04-02T07:39:40.667Z,100208.75
2023-04-02T07:41:13.193Z,100210.50
2023-04-02T07:42:45.527Z,100212.28
2023-04-02T07:44:17.362Z,100210.50
2023-04-02T07:45:50.505Z,100218.47
2023-04-02T07:47:22.310Z,100222.84
2023-04-02T07:48:54.161Z,100228.19
2023-04-02T07:50:25.965Z,100228.97
2023-04-02T07:51:57.775Z,100225.47
2023-04-02T07:53:32.646Z,100228.03
2023-04-02T07:55:04.910Z,100233.19
2023-04-02T07:56:37.569Z,100234.00
2023-04-02T07:58:09.909Z,100247.16
2023-04-02T07:59:41.940Z,100240.88
2023-04-02T08:01:26.296Z,100246.09
2023-04-02T08:02:58.294Z,100249.47
2023-04-02T08:04:30.249Z,100246.66
2023-04-02T08:06:02.048Z,100248.28
2023-04-02T08:07:33.921Z,100251.75
2023-04-02T08:09:05.730Z,100252.53
2023-04-02T08:10:37.601Z,100255.97
2023-04-02T08:12:13.123Z,100265.69
2023-04-02T08:13:44.970Z,100259.34
2023-04-02T08:15:17.378Z,100268.28
2023-04-02T08:16:52.210Z,100270.00
2023-04-02T08:18:24.132Z,100274.53
2023-04-02T08:19:56.309Z,100279.78
2023-04-02T08:21:28.097Z,100285.97
2023-04-02T08:23:01.263Z,100285.03
2023-04-02T08:24:33.179Z,100293.03
2023-04-02T08:26:06.708Z,100297.44
2023-04-02T08:27:38.825Z,100297.50
2023-04-02T08:29:10.673Z,100297.50
2023-04-02T08:30:42.862Z,100304.56
2023-04-02T08:32:16.390Z,100300.09
2023-04-02T08:33:48.219Z,100308.16
2023-04-02T08:35:20.031Z,100306.34
2023-04-02T08:36:56.629Z,100308.25
2023-04-02T08:38:28.450Z,100311.59
2023-04-02T08:40:00.601Z,100321.41
2023-04-02T08:41:42.057Z,100317.00
2023-04-02T08:43:32.388Z,100318.91
2023-04-02T08:45:32.458Z,100325.63
2023-04-02T08:47:07.094Z,100328.13
2023-04-02T08:48:43.310Z,100329.09
2023-04-02T08:50:28.787Z,100330.00
2023-04-02T08:52:01.103Z,100339.66
2023-04-02T08:53:37.677Z,100336.13
2023-04-02T08:55:35.137Z,100341.53
2023-04-02T08:57:36.858Z,100344.94
2023-04-02T08:59:37.293Z,100342.13
2023-04-02T09:01:24.135Z,100349.03
2023-04-02T09:03:02.728Z,100348.16
2023-04-02T09:04:34.716Z,100350.75
2023-04-02T09:06:10.218Z,100352.53
2023-04-02T09:07:42.324Z,100353.41
2023-04-02T09:09:15.833Z,100356.06
2023-04-02T09:10:59.503Z,100353.50
2023-04-02T09:12:32.366Z,100361.34
2023-04-02T09:14:11.786Z,100359.53
2023-04-02T09:15:43.830Z,100362.09
2023-04-02T09:17:24.584Z,100372.75
2023-04-02T09:18:56.602Z,100366.25
2023-04-02T09:20:29.492Z,100374.00
2023-04-02T09:22:17.653Z,100381.94
2023-04-02T09:23:50.245Z,100377.31
2023-04-02T09:25:27.293Z,100385.06
2023-04-02T09:26:59.494Z,100385.84
2023-04-02T09:28:31.810Z,100391.88
2023-04-02T09:30:12.323Z,100394.41
2023-04-02T09:31:50.762Z,100400.59
2023-04-02T09:33:45.105Z,100395.19
2023-04-02T09:35:28.796Z,100397.59
2023-04-02T09:37:23.136Z,100395.78
2023-04-02T09:39:07.146Z,100409.97
2023-04-02T09:40:48.681Z,100409.06
2023-04-02T09:42:38.268Z,100421.44
2023-04-02T09:44:22.143Z,100417.75
2023-04-02T09:46:01.338Z,100424.75
2023-04-02T09:47:33.527Z,100421.13
2023-04-02T09:49:06.310Z,100430.00
2023-04-02T09:50:38.405Z,100429.03
2023-04-02T09:52:21.511Z,100435.22
2023-04-02T09:54:02.315Z,100434.22
2023-04-02T09:55:35.004Z,100435.81
2023-04-02T09:57:21.391Z,100439.31
2023-04-02T09:59:03.510Z,100434.75
2023-04-02T10:00:35.716Z,100447.88
2023-04-02T10:02:26.939Z,100444.19
2023-04-02T10:04:00.182Z,100446.66
2023-04-02T10:07:31.032Z,100453.97
2023-04-02T10:09:20.738Z,100450.44
2023-04-02T10:10:56.955Z,100459.16
2023-04-02T10:12:36.854Z,100467.09
2023-04-02T10:14:20.256Z,100466.44
2023-04-02T10:16:06.014Z,100470.06
2023-04-02T10:17:38.426Z,100474.44
2023-04-02T10:19:15.356Z,100471.09
2023-04-02T10:20:51.186Z,100484.34
2023-04-02T10:22:23.841Z,100475.47
2023-04-02T10:23:57.621Z,100479.19
2023-04-02T10:25:37.278Z,100475.72
2023-04-02T10:27:29.916Z,100477.59
2023-04-02T10:29:07.752Z,100489.84
2023-04-02T10:30:59.919Z,100493.59
2023-04-02T10:32:38.070Z,100499.88
2023-04-02T10:34:23.737Z,100499.09
2023-04-02T10:36:30.561Z,100503.66
2023-04-02T10:38:23.677Z,100508.34
2023-04-02T10:40:01.502Z,100510.84
2023-04-02T10:41:52.428Z,100511.00
2023-04-02T10:43:42.850Z,100511.97
2023-04-02T10:45:35.285Z,100510.94
2023-04-02T10:47:33.442Z,100515.34
2023-04-02T10:49:28.008Z,100519.56
2023-04-02T10:51:06.961Z,100521.22
2023-04-02T10:52:46.135Z,100528.97
2023-04-02T10:54:28.121Z,100525.28
2023-04-02T10:56:05.695Z,100534.94
2023-04-02T10:57:40.909Z,100534.00
2023-04-02T10:59:31.096Z,100532.38
2023-04-02T11:01:09.990Z,100529.47
2023-04-02T11:02:52.589Z,100539.13
2023-04-02T11:04:46.355Z,100533.78
2023-04-02T11:06:27.611Z,100533.53
2023-04-02T11:08:28.904Z,100538.72
2023-04-02T11:10:01.106Z,100540.91
2023-04-02T11:11:40.423Z,100542.72
2023-04-02T11:13:24.359Z,100549.72
2023-04-02T11:14:56.618Z,100548.59
2023-04-02T11:16:29.093Z,100544.91
2023-04-02T11:18:01.315Z,100541.13
2023-04-02T11:19:35.002Z,100548.03
2023-04-02T11:21:28.198Z,100548.66
2023-04-02T11:23:18.602Z,100547.72
2023-04-02T11:24:56.217Z,100554.63
2023-04-02T11:26:42.105Z,100558.06
2023-04-02T11:28:19.982Z,100557.75
2023-04-02T11:30:16.041Z,100556.97
2023-04-02T11:31:49.317Z,100563.78
2023-04-02T11:33:35.869Z,100563.69
2023-04-02T11:35:24.429Z,100566.38
2023-04-02T11:36:56.507Z,100567.00
2023-04-02T11:38:28.263Z,100571.22
2023-04-02T11:40:16.026Z,100568.50
2023-04-02T11:42:02.940Z,100572.88
2023-04-02T11:43:34.741Z,100574.38
2023-04-02T11:45:24.752Z,100581.44
2023-04-02T11:47:19.026Z,100588.31
2023-04-02T11:48:51.195Z,100587.13
2023-04-02T11:50:38.315Z,100578.09
2023-04-02T11:52:39.206Z,100578.09
2023-04-02T11:54:25.427Z,100583.97
2023-04-02T11:55:57.149Z,100588.03
2023-04-02T11:58:00.458Z,100585.28
2023-04-02T11:59:55.240Z,100585.88
2023-04-02T12:02:13.882Z,100595.47
2023-04-02T12:04:13.460Z,100600.50
2023-04-02T12:06:13.516Z,100592.41
2023-04-02T12:08:05.344Z,100598.59
2023-04-02T12:09:59.254Z,100596.63
2023-04-02T12:11:39.772Z,100603.69
2023-04-02T12:13:20.045Z,100603.63
2023-04-02T12:14:56.819Z,100606.03
2023-04-02T12:16:34.718Z,100608.63
2023-04-02T12:18:13.958Z,100608.53
2023-04-02T12:19:51.648Z,100604.84
2023-04-02T12:21:26.810Z,100607.41
2023-04-02T12:22:58.971Z,100612.50
2023-04-02T12:24:31.528Z,100605.25
2023-04-02T12:26:09.092Z,100615.72
2023-04-02T12:27:42.662Z,100611.91
2023-04-02T12:29:28.203Z,100621.47
2023-04-02T12:31:09.559Z,100622.94
2023-04-02T12:32:41.648Z,100615.25
2023-04-02T12:34:17.207Z,100626.47
2023-04-02T12:35:57.718Z,100624.31
2023-04-02T12:37:30.853Z,100634.47
2023-04-02T12:39:02.738Z,100629.56
2023-04-02T12:40:34.816Z,100632.53
2023-04-02T12:42:34.663Z,100632.09
2023-04-02T12:44:13.780Z,100641.13
2023-04-02T12:45:52.970Z,100641.63
2023-04-02T12:47:25.528Z,100633.13
2023-04-02T12:49:12.178Z,100636.41
2023-04-02T12:50:44.117Z,100638.03
2023-04-02T12:52:19.270Z,100645.13
2023-04-02T12:53:52.789Z,100641.47
2023-04-02T12:55:27.016Z,100647.78
2023-04-02T12:57:27.803Z,100647.13
2023-04-02T12:59:01.530Z,100643.47
2023-04-02T13:00:34.223Z,100648.94
2023-04-02T13:02:24.146Z,100646.63
2023-04-02T13:04:08.954Z,100649.38
2023-04-02T13:05:44.671Z,100651.19
2023-04-02T13:07:18.534Z,100648.69
2023-04-02T13:08:51.085Z,100657.88
2023-04-02T13:10:27.657Z,100652.53
2023-04-02T13:11:59.927Z,100663.25
2023-04-02T13:13:43.800Z,100661.72
2023-04-02T13:15:23.793Z,100663.41
2023-04-02T13:16:56.264Z,100665.91
2023-04-02T13:18:28.536Z,100664.03
2023-04-02T13:20:29.797Z,100663.25
2023-04-02T13:22:03.498Z,100666.72
2023-04-02T13:23:37.611Z,100670.13
2023-04-02T13:25:09.401Z,100669.28
2023-04-02T13:26:41.967Z,100677.25
2023-04-02T13:28:13.829Z,100674.56
2023-04-02T13:29:45.720Z,100678.78
2023-04-02T13:31:17.655Z,100677.91
2023-04-02T13:32:49.894Z,100683.16
2023-04-02T13:34:22.112Z,100691.31
2023-04-02T13:35:54.102Z,100677.91
2023-04-02T13:37:25.995Z,100690.34
2023-04-02T13:38:58.028Z,100685.97
2023-04-02T13:40:29.896Z,100686.81
2023-04-02T13:42:03.742Z,100696.56
2023-04-02T13:43:35.614Z,100694.75
2023-04-02T13:45:21.662Z,100694.00
2023-04-02T13:46:54.620Z,100696.56
2023-04-02T13:48:28.952Z,100703.84
2023-04-02T13:50:01.074Z,100708.25
2023-04-02T13:51:38.899Z,100710.91
2023-04-02T13:53:22.064Z,100707.63
2023-04-02T13:55:00.180Z,100708.69
2023-04-02T13:56:32.421Z,100720.28
2023-04-02T13:58:05.679Z,100722.34
2023-04-02T13:59:37.553Z,100720.69
2023-04-02T14:01:10.026Z,100720.88
2023-04-02T14:02:46.544Z,100727.38
2023-04-02T14:04:27.579Z,100726.84
2023-04-02T14:06:21.295Z,100729.72
2023-04-02T14:08:09.161Z,100726.44
2023-04-02T14:10:00.225Z,100726.69
2023-04-02T14:11:50.605Z,100732.38
2023-04-02T14:13:37.670Z,100732.66
2023-04-02T14:15:27.775Z,100734.72
2023-04-02T14:17:19.797Z,100737.56
2023-04-02T14:18:57.332Z,100738.00
2023-04-02T14:21:01.584Z,100743.78
2023-04-02T14:22:39.134Z,100749.22
2023-04-02T14:24:16.487Z,100760.94
2023-04-02T14:26:16.009Z,100749.63
2023-04-02T14:28:06.858Z,100752.72
2023-04-02T14:29:47.981Z,100755.47
2023-04-02T14:31:43.566Z,100761.16
2023-04-02T14:33:31.074Z,100754.09
2023-04-02T14:35:25.661Z,100763.28
2023-04-02T14:37:38.600Z,100772.19
2023-04-02T14:39:37.208Z,100769.66
2023-04-02T14:41:22.678Z,100774.25
2023-04-02T14:43:03.589Z,100779.75
2023-04-02T14:44:43.265Z,100770.00
2023-04-02T14:46:15.168Z,100777.25
2023-04-02T14:47:53.338Z,100770.25
2023-04-02T14:49:31.661Z,100769.38
2023-04-02T14:51:28.220Z,100780.31
2023-04-02T14:53:09.391Z,100781.19
2023-04-02T14:55:04.474Z,100781.41
2023-04-02T14:56:47.783Z,100779.69
2023-04-02T14:58:26.769Z,100780.72
2023-04-02T14:59:58.555Z,100781.66
2023-04-02T15:01:52.417Z,100794.38
2023-04-02T15:03:31.728Z,100786.19
2023-04-02T15:05:11.867Z,100781.94
2023-04-02T15:06:49.741Z,100778.47
2023-04-02T15:08:27.405Z,100787.44
2023-04-02T15:10:24.204Z,100783.22
2023-04-02T15:12:12.752Z,100781.47
2023-04-02T15:13:52.463Z,100785.09
2023-04-02T15:15:39.398Z,100785.25
2023-04-02T15:17:17.573Z,100788.78
2023-04-02T15:19:03.511Z,100789.09
2023-04-02T15:20:45.658Z,100792.63
2023-04-02T15:22:40.341Z,100795.53
2023-04-02T15:24:47.884Z,100794.84
2023-04-02T15:26:30.706Z,100791.22
2023-04-02T15:28:08.455Z,100794.84
2023-04-02T15:30:07.932Z,100795.69
2023-04-02T15:31:45.909Z,100801.19
2023-04-02T15:33:33.846Z,100804.81
2023-04-02T15:35:20.789Z,100801.34
2023-04-02T15:37:01.702Z,100803.94
2023-04-02T15:38:49.921Z,100795.06
2023-04-02T15:40:52.700Z,100808.44
2023-04-02T15:42:39.572Z,100808.34
2023-04-02T15:44:16.909Z,100807.34
2023-04-02T15:46:06.554Z,100810.88
2023-04-02T15:47:57.331Z,100817.78
2023-04-02T15:49:49.978Z,100819.59
2023-04-02T15:51:48.398Z,100815.81
2023-04-02T15:53:48.444Z,100821.88
2023-04-02T15:55:43.591Z,100822.75
2023-04-02T15:58:01.709Z,100820.94
2023-04-02T15:59:56.530Z,100822.50
2023-04-02T16:01:59.681Z,100819.84
2023-04-02T16:04:19.550Z,100837.59
2023-04-02T16:06:20.722Z,100822.34
2023-04-02T16:08:17.169Z,100840.09
2023-04-02T16:09:58.085Z,100837.28
2023-04-02T16:11:30.070Z,100843.50
2023-04-02T16:13:10.653Z,100846.25
2023-04-02T16:14:49.100Z,100843.59
2023-04-02T16:16:36.242Z,100853.63
2023-04-02T16:18:24.715Z,100848.22
2023-04-02T16:20:17.424Z,100846.56
2023-04-02T16:22:21.161Z,100850.19
2023-04-02T16:23:53.154Z,100852.75
2023-04-02T16:25:28.393Z,100853.72
2023-04-02T16:27:29.036Z,100851.25
2023-04-02T16:29:06.948Z,100858.19
2023-04-02T16:30:50.630Z,100856.44
2023-04-02T16:32:52.104Z,100854.72
2023-04-02T16:34:51.293Z,100865.41
2023-04-02T16:36:41.698Z,100865.41
2023-04-02T16:38:18.457Z,100867.13
2023-04-02T16:40:20.633Z,100860.22
2023-04-02T16:42:10.288Z,100869.09
2023-04-02T16:43:55.734Z,100873.53
2023-04-02T16:45:49.180Z,100868.47
2023-04-02T16:47:46.098Z,100874.75
2023-04-02T16:49:43.523Z,100876.56
2023-04-02T16:51:37.294Z,100883.81
2023-04-02T16:54:02.772Z,100885.69
2023-04-02T16:55:45.575Z,100890.94
2023-04-02T16:57:41.016Z,100890.31
2023-04-02T16:59:19.911Z,100885.81
2023-04-02T17:01:06.806Z,100895.00
2023-04-02T17:03:01.366Z,100892.47
2023-04-02T17:04:52.646Z,100894.38
2023-04-02T17:06:44.460Z,100902.44
2023-04-02T17:08:27.623Z,100907.00
2023-04-02T17:10:19.207Z,100908.00
2023-04-02T17:12:13.954Z,100908.06
2023-04-02T17:14:06.343Z,100909.03
2023-04-02T17:15:40.777Z,100905.53
2023-04-02T17:17:15.804Z,100910.13
2023-04-02T17:18:51.734Z,100915.59
2023-04-02T17:20:26.522Z,100912.22
2023-04-02T17:22:02.474Z,100921.13
2023-04-02T17:23:55.393Z,100918.59
2023-04-02T17:25:34.300Z,100912.41
2023-04-02T17:27:17.505Z,100916.88
2023-04-02T17:28:50.922Z,100913.50
2023-04-02T17:30:43.651Z,100922.47
2023-04-02T17:32:26.259Z,100926.13
2023-04-02T17:33:58.133Z,100920.84
2023-04-02T17:35:43.947Z,100923.69
2023-04-02T17:37:47.760Z,100930.03
2023-04-02T17:39:40.749Z,100930.09
2023-04-02T17:41:32.752Z,100933.84
2023-04-02T17:43:26.613Z,100933.03
2023-04-02T17:45:16.950Z,100927.81
2023-04-02T17:47:15.149Z,100936.78
2023-04-02T17:48:48.956Z,100919.81
2023-04-02T17:50:36.037Z,100926.19
2023-04-02T17:52:53.458Z,100936.28
2023-04-02T17:55:02.614Z,100933.75
2023-04-02T17:56:42.404Z,100930.28
2023-04-02T17:58:29.040Z,100936.69
2023-04-02T18:00:16.433Z,100938.63
2023-04-02T18:02:07.528Z,100939.63
2023-04-02T18:03:53.048Z,100943.25
2023-04-02T18:05:36.974Z,100939.75
2023-04-02T18:07:23.906Z,100942.47
2023-04-02T18:09:20.698Z,100951.66
2023-04-02T18:11:09.760Z,100946.31
2023-04-02T18:13:03.660Z,100950.09
2023-04-02T18:14:47.707Z,100952.84
2023-04-02T18:16:36.434Z,100952.97
2023-04-02T18:18:30.338Z,100961.84
2023-04-02T18:20:27.661Z,100958.50
2023-04-02T18:22:12.785Z,100966.44
2023-04-02T18:23:59.020Z,100963.91
2023-04-02T18:25:36.654Z,100960.31
2023-04-02T18:27:30.890Z,100967.56
2023-04-02T18:29:21.232Z,100972.97
2023-04-02T18:31:22.053Z,100973.91
2023-04-02T18:33:20.357Z,100978.38
2023-04-02T18:35:23.246Z,100983.78
2023-04-02T18:37:05.565Z,100984.69
2023-04-02T18:38:47.141Z,100986.56
2023-04-02T18:40:30.958Z,100983.91
2023-04-02T18:42:44.977Z,100994.63
2023-04-02T18:44:49.481Z,100996.44
2023-04-02T18:46:48.996Z,100997.28
2023-04-02T18:48:50.688Z,101002.63
2023-04-02T18:50:30.394Z,101009.75
2023-04-02T18:52:09.562Z,101009.56
2023-04-02T18:53:42.397Z,101006.09
2023-04-02T18:55:25.002Z,101010.63
2023-04-02T18:56:56.878Z,101018.50
2023-04-02T18:58:41.058Z,101010.63
2023-04-02T19:00:33.904Z,101020.34
2023-04-02T19:02:26.220Z,101015.13
2023-04-02T19:04:04.176Z,101022.16
2023-04-02T19:05:36.515Z,101021.25
2023-04-02T19:07:16.521Z,101023.09
2023-04-02T19:09:02.990Z,101025.75
2023-04-02T19:10:38.756Z,101026.56
2023-04-02T19:12:22.376Z,101030.22
2023-04-02T19:13:58.720Z,101030.03
2023-04-02T19:15:44.317Z,101036.44
2023-04-02T19:17:24.782Z,101031.00
2023-04-02T19:19:13.783Z,101038.16
2023-04-02T19:20:55.992Z,101025.63
2023-04-02T19:22:46.267Z,101040.81
2023-04-02T19:24:24.190Z,101041.63
2023-04-02T19:26:06.057Z,101036.31
2023-04-02T19:27:54.079Z,101041.69
2023-04-02T19:29:46.920Z,101046.16
2023-04-02T19:31:24.748Z,101040.69
2023-04-02T19:33:23.514Z,101047.91
2023-04-02T19:35:11.582Z,101045.16
2023-04-02T19:37:05.828Z,101046.09
2023-04-02T19:38:59.423Z,101046.03
2023-04-02T19:40:43.113Z,101050.44
2023-04-02T19:42:30.577Z,101051.47